KMJQ

Jackson Municipal Airport

Jackson, Minnesota, USA
METAR KMJQ 170755Z AUTO 01008KT 1/2SM FZFG OVC002 M03/M03 A3003 RMK AO2
Observed Flight Rules
Dec-17 @ 07:55 UTC (16 minutes ago) Instrument Flight Rules
Wind Visibility Clouds Conditions
10° at 8 knots 1/2 miles
  • Overcast at 200' AGL
  • Freezing
  • Fog
Temperatures Readings
Current -3°C / 27°F
Dewpoint -3°C / 27°F
Humidity 100%
Altimeter 30.03" Hg
Pressure 1017 hPa
Elevation 441
METAR KMJQ 170755Z AUTO 01008KT 1/2SM FZFG OVC002 M03/M03 A3003 RMK AO2
Observed Flight Rules
Dec-17 @ 07:55 UTC
(16 minutes ago)
LIFR
Wind Visibility
10° at 8 knots 1/2 miles
Clouds
  • Overcast at 200' AGL
Conditions
  • Freezing
  • Fog
Temperature Dewpoint
-3°C / 27°F -3°C / 27°F
Humidity Altimeter Pressure
100% 30.03" Hg 1017 hPa